Coolidge, Kansas
Current Conditions -  °F | °C
As of 8:15 AM on Thursday 18 Dec 2014 (Local Time) from K3K3 Reporting Station
Haze Haze  
Wind Chill: 32°   Ceiling: 200
Heat Index: 32°   Visibility: 2mi
Dew Point: 32°   Wind: 3mph
Humidity: 100%   Direction: 250°WSW
Pressure: 30.12"   Gusts: NA
Location:  38.04°N, 102.01°W
Report Text: K3K3 181515Z AUTO 25003KT 2SM BR OVC002 00/00 A3012 RMK AO2
Loading
Personal Weather Stations






























Interactive Weather Map New forecast layout! Learn more

10-Day Weather Forecast

Advertisements
Track Severe Weather on mobile